Time;durP1;ratioP1;P1;durP2;ratioP2;P2;SDS_P1;SDS_P2;PMS_P1;PMS_P2;Temp;Humidity;BMP_temperature;BMP_pressure;BME280_temperature;BME280_humidity;BME280_pressure;Samples;Min_cycle;Max_cycle;Signal;HPM_P1;HPM_P2
2021/08/30 00:00:52;;;;;;;27.38;19.95;;;15.70;99.90;;;;;;5070799;28;20151;-47
2021/08/30 00:03:17;;;;;;;30.63;20.88;;;15.70;99.90;;;;;;5070721;28;20029;-46
2021/08/30 00:05:43;;;;;;;28.45;20.02;;;15.70;99.90;;;;;;5070751;28;20169;-47
2021/08/30 00:08:08;;;;;;;29.92;19.80;;;15.70;99.90;;;;;;5069770;28;20028;-50
2021/08/30 00:10:34;;;;;;;28.65;20.73;;;15.70;99.90;;;;;;5069856;28;20037;-46
2021/08/30 00:12:59;;;;;;;25.55;19.02;;;15.70;99.90;;;;;;5069928;28;20039;-47
2021/08/30 00:15:25;;;;;;;28.38;20.15;;;15.70;99.90;;;;;;5068367;28;20035;-47
2021/08/30 00:17:51;;;;;;;26.50;19.05;;;15.70;99.90;;;;;;5069755;28;20033;-46
2021/08/30 00:20:20;;;;;;;28.88;19.83;;;15.70;99.90;;;;;;5069177;28;20017;-46
2021/08/30 00:22:46;;;;;;;25.95;18.70;;;15.70;99.90;;;;;;5070691;28;20119;-47
2021/08/30 00:25:12;;;;;;;28.27;19.73;;;15.70;99.90;;;;;;5068137;28;20453;-46
2021/08/30 00:27:38;;;;;;;28.92;19.30;;;15.70;99.90;;;;;;5061338;28;20035;-47
2021/08/30 00:30:06;;;;;;;25.25;18.92;;;15.70;99.90;;;;;;5070507;28;20033;-47
2021/08/30 00:32:31;;;;;;;32.40;20.77;;;15.70;99.90;;;;;;5069117;28;20034;-47
2021/08/30 00:34:57;;;;;;;25.05;18.48;;;15.70;99.90;;;;;;5070147;28;20059;-48
2021/08/30 00:37:22;;;;;;;27.13;19.90;;;15.70;99.90;;;;;;5069750;28;20599;-46
2021/08/30 00:39:49;;;;;;;27.00;18.80;;;15.70;99.90;;;;;;5069509;28;20043;-47
2021/08/30 00:42:15;;;;;;;24.38;17.60;;;15.80;99.90;;;;;;5070005;28;20059;-49
2021/08/30 00:44:41;;;;;;;24.55;17.90;;;15.70;99.90;;;;;;5068744;28;20090;-48
2021/08/30 00:47:07;;;;;;;26.33;19.13;;;15.80;99.90;;;;;;5064345;28;20029;-46
2021/08/30 00:49:32;;;;;;;28.30;18.27;;;15.70;99.90;;;;;;5065077;28;20131;-47
2021/08/30 00:51:58;;;;;;;26.83;18.40;;;15.70;99.90;;;;;;5070019;28;20103;-49
2021/08/30 00:54:27;;;;;;;25.83;18.55;;;15.80;99.90;;;;;;5069792;28;20040;-49
2021/08/30 00:56:53;;;;;;;33.55;19.35;;;15.70;99.90;;;;;;5069457;28;20081;-48
2021/08/30 00:59:18;;;;;;;26.98;18.45;;;15.70;99.90;;;;;;5068667;28;20131;-48
2021/08/30 01:01:44;;;;;;;30.00;18.45;;;15.70;99.90;;;;;;5070005;28;20056;-47
2021/08/30 01:04:11;;;;;;;25.27;18.90;;;15.70;99.90;;;;;;5068139;28;20055;-46
2021/08/30 01:07:01;;;;;;;29.58;19.55;;;15.70;99.90;;;;;;5068968;28;20107;-46
2021/08/30 01:09:45;;;;;;;26.60;18.75;;;15.70;99.90;;;;;;5069565;28;20017;-49
2021/08/30 01:12:22;;;;;;;27.38;17.88;;;15.70;99.90;;;;;;5069499;28;20024;-46
2021/08/30 01:15:09;;;;;;;28.63;18.65;;;15.80;99.90;;;;;;5069160;28;20557;-48
2021/08/30 01:17:35;;;;;;;27.55;18.65;;;15.80;99.90;;;;;;5061299;28;20557;-46
2021/08/30 01:20:11;;;;;;;27.02;18.92;;;15.80;99.90;;;;;;5067935;28;20031;-46
2021/08/30 01:22:41;;;;;;;31.30;18.42;;;15.80;99.90;;;;;;5069469;28;20024;-46
2021/08/30 01:25:11;;;;;;;25.73;17.50;;;15.80;99.90;;;;;;5069220;28;20033;-48
2021/08/30 01:27:38;;;;;;;25.73;17.63;;;15.80;99.90;;;;;;5068680;28;20041;-46
2021/08/30 01:30:12;;;;;;;26.77;18.48;;;15.80;99.90;;;;;;5069352;28;20100;-46
2021/08/30 01:32:40;;;;;;;25.60;17.42;;;15.80;99.90;;;;;;5069162;28;20028;-47
2021/08/30 01:35:08;;;;;;;21.65;16.70;;;15.80;99.90;;;;;;5068502;28;20040;-46
2021/08/30 01:37:36;;;;;;;22.75;18.02;;;15.80;99.90;;;;;;5068485;28;20123;-46
2021/08/30 01:40:04;;;;;;;22.17;16.38;;;15.80;99.90;;;;;;5069468;28;20347;-46
2021/08/30 01:42:30;;;;;;;25.35;16.23;;;15.80;99.90;;;;;;5069005;28;20511;-47
2021/08/30 01:44:58;;;;;;;21.27;16.27;;;15.70;99.90;;;;;;5068937;28;20029;-48
2021/08/30 01:47:24;;;;;;;26.02;16.50;;;15.70;99.90;;;;;;5062347;28;20430;-47
2021/08/30 01:50:00;;;;;;;23.40;16.95;;;15.70;99.90;;;;;;5049289;28;20077;-47
2021/08/30 01:52:31;;;;;;;27.77;16.73;;;15.80;99.90;;;;;;5062362;28;20421;-47
2021/08/30 01:55:01;;;;;;;25.83;16.02;;;15.70;99.90;;;;;;5068775;28;20035;-46
2021/08/30 01:57:26;;;;;;;20.80;15.50;;;15.70;99.90;;;;;;5068528;28;20393;-46
2021/08/30 02:02:56;;;;;;;30.23;17.30;;;15.70;99.90;;;;;;5066094;28;20025;-47
2021/08/30 02:05:22;;;;;;;22.00;16.63;;;15.70;99.90;;;;;;5065592;28;20032;-47
2021/08/30 02:07:47;;;;;;;23.50;17.10;;;15.70;99.90;;;;;;5066535;28;20041;-46
2021/08/30 02:10:13;;;;;;;21.52;16.58;;;15.70;99.90;;;;;;5068574;28;20073;-46
2021/08/30 02:12:38;;;;;;;25.35;16.65;;;15.70;99.90;;;;;;5068625;28;20035;-46
2021/08/30 02:15:04;;;;;;;22.77;16.48;;;15.70;99.90;;;;;;5068450;28;20179;-47
2021/08/30 02:17:33;;;;;;;22.10;16.30;;;15.70;99.90;;;;;;5066494;28;20032;-46
2021/08/30 02:20:10;;;;;;;21.63;15.73;;;15.70;99.90;;;;;;5045403;28;20021;-46
2021/08/30 02:22:41;;;;;;;23.02;15.88;;;15.70;99.90;;;;;;5040898;28;20017;-47
2021/08/30 02:25:12;;;;;;;20.55;14.55;;;15.70;99.90;;;;;;5038069;28;20029;-47
2021/08/30 02:27:45;;;;;;;18.88;14.48;;;15.70;99.90;;;;;;5036350;28;20104;-46
2021/08/30 02:30:21;;;;;;;23.42;14.68;;;15.70;99.90;;;;;;5037373;28;20044;-46
2021/08/30 02:32:50;;;;;;;20.45;15.55;;;15.70;99.90;;;;;;5037819;28;20025;-46
2021/08/30 02:35:21;;;;;;;19.50;14.80;;;15.70;99.90;;;;;;5038799;28;20057;-46
2021/08/30 02:37:49;;;;;;;21.05;14.48;;;15.70;99.90;;;;;;5036141;28;20021;-48
2021/08/30 02:40:17;;;;;;;25.52;15.32;;;15.70;99.90;;;;;;5035454;28;20022;-46
2021/08/30 02:42:43;;;;;;;20.48;14.63;;;15.70;99.90;;;;;;5037965;28;20510;-46
2021/08/30 02:45:10;;;;;;;23.15;15.80;;;15.70;99.90;;;;;;5038385;28;20033;-47
2021/08/30 02:47:37;;;;;;;23.98;15.60;;;15.70;99.90;;;;;;5035113;28;20037;-46
2021/08/30 02:50:04;;;;;;;18.63;14.85;;;15.70;99.90;;;;;;5040938;28;20106;-46
2021/08/30 02:52:30;;;;;;;28.30;15.68;;;15.70;99.90;;;;;;5041323;28;20108;-46
2021/08/30 02:54:56;;;;;;;19.33;14.10;;;15.70;99.90;;;;;;5035633;28;20029;-46
2021/08/30 02:57:23;;;;;;;27.23;14.88;;;15.70;99.90;;;;;;5038594;28;20021;-46
2021/08/30 02:59:51;;;;;;;20.55;15.18;;;15.70;99.90;;;;;;5038145;28;20155;-46
2021/08/30 03:02:18;;;;;;;21.52;15.55;;;15.70;99.90;;;;;;5030481;28;20483;-47
2021/08/30 03:04:44;;;;;;;19.30;13.90;;;15.70;99.90;;;;;;5031577;28;20037;-46
2021/08/30 03:07:11;;;;;;;21.52;14.35;;;15.70;99.90;;;;;;5030276;28;20030;-46
2021/08/30 03:09:37;;;;;;;21.95;14.60;;;15.70;99.90;;;;;;5032277;28;20032;-46
2021/08/30 03:12:04;;;;;;;22.08;15.00;;;15.70;99.90;;;;;;5031791;28;20037;-49
2021/08/30 03:14:31;;;;;;;21.92;14.43;;;15.70;99.90;;;;;;5031844;28;20484;-48
2021/08/30 03:17:02;;;;;;;18.27;14.00;;;15.70;99.90;;;;;;5031118;28;20030;-46
2021/08/30 03:19:29;;;;;;;17.35;13.35;;;15.70;99.90;;;;;;5043915;28;20016;-46
2021/08/30 03:21:57;;;;;;;21.33;14.55;;;15.70;99.90;;;;;;5063270;28;20052;-47
2021/08/30 03:24:24;;;;;;;18.60;13.55;;;15.70;99.90;;;;;;5071575;28;20055;-46
2021/08/30 03:26:52;;;;;;;21.50;14.75;;;15.70;99.90;;;;;;5070933;28;20013;-46
2021/08/30 03:29:19;;;;;;;22.80;14.20;;;15.70;99.90;;;;;;5071563;28;20529;-46
2021/08/30 03:31:46;;;;;;;18.05;13.85;;;15.60;99.90;;;;;;5070079;28;20028;-47
2021/08/30 03:34:12;;;;;;;18.92;14.18;;;15.60;99.90;;;;;;5069810;28;20456;-47
2021/08/30 03:36:38;;;;;;;21.20;14.00;;;15.60;99.90;;;;;;5071135;28;20104;-47
2021/08/30 03:39:05;;;;;;;19.83;14.18;;;15.60;99.90;;;;;;5070128;28;20547;-46
2021/08/30 03:41:31;;;;;;;23.00;14.93;;;15.70;99.90;;;;;;5071319;28;20397;-46
2021/08/30 03:43:58;;;;;;;24.60;14.35;;;15.70;99.90;;;;;;5071416;28;20025;-46
2021/08/30 03:46:24;;;;;;;17.48;13.20;;;15.70;99.90;;;;;;5070872;28;20029;-47
2021/08/30 03:48:50;;;;;;;19.27;12.85;;;15.70;99.90;;;;;;5058989;28;20115;-47
2021/08/30 03:51:17;;;;;;;17.52;13.75;;;15.70;99.90;;;;;;5062729;28;20028;-47
2021/08/30 03:53:44;;;;;;;20.02;14.13;;;15.60;99.90;;;;;;5071025;28;20112;-47
2021/08/30 03:56:11;;;;;;;20.65;13.60;;;15.60;99.90;;;;;;5070687;28;20414;-47
2021/08/30 03:58:39;;;;;;;17.77;13.10;;;15.60;99.90;;;;;;5061036;28;20092;-46
2021/08/30 04:01:08;;;;;;;22.80;15.07;;;15.60;99.90;;;;;;5041747;28;20075;-46
2021/08/30 04:03:46;;;;;;;22.40;14.38;;;15.60;99.90;;;;;;5038985;28;20491;-46
2021/08/30 04:06:13;;;;;;;25.55;14.27;;;15.60;99.90;;;;;;5039217;28;20391;-46
2021/08/30 04:08:38;;;;;;;23.30;13.98;;;15.60;99.90;;;;;;5047826;28;20025;-46
2021/08/30 04:11:09;;;;;;;23.65;13.77;;;15.60;99.90;;;;;;5049644;28;20029;-45
2021/08/30 04:13:35;;;;;;;23.05;14.10;;;15.60;99.90;;;;;;5050937;28;20115;-46
2021/08/30 04:16:01;;;;;;;16.77;13.45;;;15.60;99.90;;;;;;5049969;28;20342;-46
2021/08/30 04:18:27;;;;;;;18.00;13.35;;;15.60;99.90;;;;;;5045712;28;20099;-46
2021/08/30 04:20:52;;;;;;;16.38;13.40;;;15.50;99.90;;;;;;5058080;28;20025;-46
2021/08/30 04:23:18;;;;;;;16.80;13.35;;;15.60;99.90;;;;;;5070604;28;20505;-46
2021/08/30 04:25:43;;;;;;;22.38;14.00;;;15.50;99.90;;;;;;5070729;28;20036;-46
2021/08/30 04:28:09;;;;;;;19.30;15.02;;;15.50;99.90;;;;;;5069960;28;20397;-47
2021/08/30 04:30:36;;;;;;;20.92;13.23;;;15.50;99.90;;;;;;5070620;28;20490;-47
2021/08/30 04:33:02;;;;;;;20.00;14.30;;;15.50;99.90;;;;;;5070406;28;20025;-48
2021/08/30 04:35:27;;;;;;;23.08;14.05;;;15.50;99.90;;;;;;5070093;28;20031;-47
2021/08/30 04:37:53;;;;;;;20.63;14.32;;;15.50;99.90;;;;;;5069688;28;20197;-47
2021/08/30 04:40:18;;;;;;;18.95;13.70;;;15.50;99.90;;;;;;5070201;28;20453;-47
2021/08/30 04:42:44;;;;;;;20.25;14.15;;;15.50;99.90;;;;;;5062474;28;20032;-48
2021/08/30 04:45:10;;;;;;;19.08;13.45;;;15.50;99.90;;;;;;5038580;28;20045;-47
2021/08/30 04:47:35;;;;;;;16.83;13.48;;;15.50;99.90;;;;;;5037714;28;20061;-46
2021/08/30 04:50:03;;;;;;;18.75;13.77;;;15.50;99.90;;;;;;5050098;28;20497;-46
2021/08/30 04:52:29;;;;;;;18.95;15.07;;;15.50;99.90;;;;;;5063113;28;20028;-46
2021/08/30 04:54:55;;;;;;;17.17;13.27;;;15.60;99.90;;;;;;5030567;28;20135;-46
2021/08/30 04:57:20;;;;;;;24.27;14.77;;;15.60;99.90;;;;;;5028188;28;20025;-46
2021/08/30 04:59:47;;;;;;;19.88;14.20;;;15.60;99.90;;;;;;5035023;28;20032;-46
2021/08/30 05:02:12;;;;;;;19.92;14.55;;;15.60;99.90;;;;;;5036952;28;20483;-46
2021/08/30 05:04:38;;;;;;;21.85;14.95;;;15.60;99.90;;;;;;5037837;28;20052;-46
2021/08/30 05:07:04;;;;;;;22.25;14.98;;;15.60;99.90;;;;;;5038608;28;20030;-46
2021/08/30 05:09:29;;;;;;;20.55;14.82;;;15.60;99.90;;;;;;5041482;28;20025;-47
2021/08/30 05:11:55;;;;;;;25.40;15.63;;;15.60;99.90;;;;;;5038126;28;20041;-48
2021/08/30 05:14:21;;;;;;;20.20;13.35;;;15.60;99.90;;;;;;5049286;28;20037;-46
2021/08/30 05:16:47;;;;;;;21.48;14.05;;;15.60;99.90;;;;;;5047197;28;20021;-46
2021/08/30 05:19:12;;;;;;;22.08;14.98;;;15.60;99.90;;;;;;5036274;28;20052;-49
2021/08/30 05:21:38;;;;;;;19.00;14.30;;;15.60;99.90;;;;;;5039373;28;20025;-47
2021/08/30 05:24:06;;;;;;;18.60;13.52;;;15.60;99.90;;;;;;5030714;28;20083;-49
2021/08/30 05:26:33;;;;;;;19.00;14.55;;;15.70;99.90;;;;;;5029379;28;20030;-46
2021/08/30 05:28:58;;;;;;;16.75;13.60;;;15.70;99.90;;;;;;5034063;28;20286;-49
2021/08/30 05:31:23;;;;;;;20.60;14.85;;;15.70;99.90;;;;;;5059783;28;20032;-46
2021/08/30 05:33:49;;;;;;;18.73;13.82;;;15.70;99.90;;;;;;5048205;28;20043;-46
2021/08/30 05:36:14;;;;;;;22.05;13.52;;;15.70;99.90;;;;;;5048507;28;20045;-46
2021/08/30 05:38:40;;;;;;;18.10;13.73;;;15.80;99.90;;;;;;5039294;28;20163;-47
2021/08/30 05:41:05;;;;;;;17.95;13.95;;;15.80;99.90;;;;;;5029673;28;20034;-47
2021/08/30 05:43:31;;;;;;;20.63;14.20;;;15.80;99.90;;;;;;5029122;28;20068;-46
2021/08/30 05:45:56;;;;;;;18.05;14.13;;;15.80;99.90;;;;;;5041941;28;20474;-49
2021/08/30 05:48:22;;;;;;;17.58;13.68;;;15.90;99.90;;;;;;5045066;28;20036;-48
2021/08/30 05:50:47;;;;;;;21.23;14.68;;;15.90;99.90;;;;;;5060953;28;20105;-49
2021/08/30 05:53:13;;;;;;;19.05;13.63;;;15.90;99.90;;;;;;5042618;28;20493;-48
2021/08/30 05:55:38;;;;;;;21.40;14.15;;;15.90;99.90;;;;;;5036213;28;20029;-46
2021/08/30 05:58:04;;;;;;;20.42;14.90;;;16.00;99.90;;;;;;5035259;28;20040;-48
2021/08/30 06:00:29;;;;;;;23.75;14.30;;;15.90;99.90;;;;;;5040898;28;20355;-46
2021/08/30 06:02:55;;;;;;;23.02;14.90;;;16.00;99.90;;;;;;5034261;28;20033;-46
2021/08/30 06:05:20;;;;;;;16.60;12.95;;;16.00;99.90;;;;;;5035933;28;20038;-46
2021/08/30 06:07:46;;;;;;;19.10;13.90;;;16.00;99.90;;;;;;5031943;28;20021;-46
2021/08/30 06:10:11;;;;;;;18.73;13.15;;;16.00;99.90;;;;;;5040668;28;20040;-46
2021/08/30 06:12:38;;;;;;;19.33;14.20;;;16.00;99.90;;;;;;5046956;28;20040;-46
2021/08/30 06:15:05;;;;;;;16.98;13.85;;;16.00;99.90;;;;;;5047151;28;20017;-47
2021/08/30 06:17:31;;;;;;;22.08;13.80;;;16.00;99.90;;;;;;5045255;28;20033;-49
2021/08/30 06:19:56;;;;;;;15.73;13.30;;;16.00;99.90;;;;;;5033730;28;20029;-47
2021/08/30 06:22:22;;;;;;;21.45;12.95;;;16.00;99.90;;;;;;5036199;28;20116;-46
2021/08/30 06:24:47;;;;;;;16.33;13.93;;;16.10;99.90;;;;;;5036590;28;20108;-46
2021/08/30 06:27:17;;;;;;;17.42;13.10;;;16.20;99.90;;;;;;5035990;28;20024;-48
2021/08/30 06:29:43;;;;;;;18.30;13.82;;;16.20;99.90;;;;;;5053429;28;20112;-47
2021/08/30 06:32:08;;;;;;;18.70;14.27;;;16.20;99.90;;;;;;5035784;28;20124;-47
2021/08/30 06:34:34;;;;;;;19.27;13.23;;;16.20;99.90;;;;;;5044193;28;20453;-48
2021/08/30 06:37:00;;;;;;;23.67;13.43;;;16.20;99.90;;;;;;5036080;28;20446;-49
2021/08/30 06:39:25;;;;;;;18.60;13.10;;;16.30;99.90;;;;;;5051753;28;20060;-47
2021/08/30 06:41:50;;;;;;;16.88;12.82;;;16.30;99.90;;;;;;5041261;28;20029;-48
2021/08/30 06:44:16;;;;;;;20.38;14.25;;;16.40;99.90;;;;;;5055657;28;20054;-47
2021/08/30 06:46:42;;;;;;;16.25;13.25;;;16.40;99.90;;;;;;5066382;28;20028;-48
2021/08/30 06:49:07;;;;;;;20.00;12.85;;;16.50;99.90;;;;;;5043512;28;20554;-48
2021/08/30 06:51:33;;;;;;;15.98;12.90;;;16.60;99.90;;;;;;5033887;28;20120;-49
2021/08/30 06:53:59;;;;;;;16.17;12.63;;;16.70;99.90;;;;;;5035154;28;20061;-47
2021/08/30 06:56:24;;;;;;;16.85;12.80;;;16.70;99.90;;;;;;5043828;28;20029;-47
2021/08/30 06:58:50;;;;;;;18.75;12.55;;;16.80;99.90;;;;;;5063223;28;20297;-48
2021/08/30 07:01:15;;;;;;;15.82;11.98;;;16.90;99.90;;;;;;5056202;28;20418;-48
2021/08/30 07:03:41;;;;;;;19.23;12.65;;;17.00;99.90;;;;;;5045971;28;20483;-47
2021/08/30 07:06:06;;;;;;;21.20;12.50;;;17.00;99.90;;;;;;5047173;28;20037;-48
2021/08/30 07:08:32;;;;;;;17.67;11.60;;;17.00;99.90;;;;;;5035736;28;20037;-47
2021/08/30 07:10:58;;;;;;;17.98;12.73;;;16.90;99.90;;;;;;5034350;28;20061;-48
2021/08/30 07:13:23;;;;;;;19.85;12.25;;;16.90;99.90;;;;;;5045270;28;20499;-48
2021/08/30 07:15:49;;;;;;;17.95;11.77;;;16.90;99.90;;;;;;5044776;28;20036;-47
2021/08/30 07:18:15;;;;;;;17.80;12.10;;;16.90;99.90;;;;;;5039777;28;20061;-47
2021/08/30 07:20:41;;;;;;;15.15;11.50;;;16.90;99.90;;;;;;5051487;28;20090;-47
2021/08/30 07:23:08;;;;;;;17.63;11.15;;;16.80;99.90;;;;;;5052261;28;20375;-48
2021/08/30 07:25:34;;;;;;;16.60;12.05;;;16.90;99.90;;;;;;5040779;28;20033;-48
2021/08/30 07:27:59;;;;;;;17.65;12.30;;;16.80;99.90;;;;;;5031627;28;20142;-47
2021/08/30 07:30:25;;;;;;;15.68;11.75;;;16.90;99.90;;;;;;5040222;28;20594;-47
2021/08/30 07:32:50;;;;;;;17.52;12.43;;;16.80;99.90;;;;;;5026994;28;20212;-47
2021/08/30 07:35:16;;;;;;;25.00;11.65;;;16.90;99.90;;;;;;5026508;28;20036;-47
2021/08/30 07:37:42;;;;;;;17.27;11.27;;;16.80;99.90;;;;;;5026226;28;20028;-50
2021/08/30 07:40:08;;;;;;;17.05;11.45;;;16.90;99.90;;;;;;5038755;28;20087;-47
2021/08/30 07:42:34;;;;;;;17.38;12.15;;;16.90;99.90;;;;;;5028031;28;20025;-47
2021/08/30 07:44:59;;;;;;;14.55;11.85;;;16.90;99.90;;;;;;5032191;28;20080;-49
2021/08/30 07:47:25;;;;;;;15.43;12.23;;;16.90;99.90;;;;;;5042488;28;20101;-49
2021/08/30 07:49:51;;;;;;;17.38;10.55;;;17.00;99.90;;;;;;5053589;28;20236;-50
2021/08/30 07:52:20;;;;;;;19.75;11.55;;;17.00;99.90;;;;;;5050517;28;20027;-49
2021/08/30 07:54:45;;;;;;;15.77;12.32;;;17.00;99.90;;;;;;5061326;28;20047;-48
2021/08/30 07:57:11;;;;;;;15.82;10.90;;;17.00;99.90;;;;;;5049054;28;20021;-51
2021/08/30 07:59:36;;;;;;;13.85;10.82;;;17.00;99.90;;;;;;5041781;28;20371;-50
2021/08/30 08:02:02;;;;;;;15.93;11.05;;;16.90;99.90;;;;;;5060247;28;20033;-48
2021/08/30 08:04:27;;;;;;;17.02;11.98;;;17.00;99.90;;;;;;5068810;28;20032;-48
2021/08/30 08:06:53;;;;;;;16.70;12.50;;;17.10;99.90;;;;;;5069293;28;20555;-47
2021/08/30 08:09:20;;;;;;;15.32;11.20;;;17.10;99.90;;;;;;5045141;28;20556;-48
2021/08/30 08:11:46;;;;;;;16.75;11.38;;;17.20;99.90;;;;;;5029281;28;20200;-48
2021/08/30 08:14:11;;;;;;;16.52;12.35;;;17.20;99.90;;;;;;5028416;28;20056;-46
2021/08/30 08:16:37;;;;;;;18.05;11.90;;;17.20;99.90;;;;;;5028160;28;20183;-47
2021/08/30 08:19:02;;;;;;;15.70;11.73;;;17.20;99.90;;;;;;5033266;28;20036;-46
2021/08/30 08:21:28;;;;;;;17.98;11.48;;;17.30;99.90;;;;;;5047262;28;20028;-48
2021/08/30 08:23:53;;;;;;;14.27;11.20;;;17.40;99.90;;;;;;5049852;28;20014;-49
2021/08/30 08:26:19;;;;;;;13.55;10.93;;;17.50;99.90;;;;;;5044006;28;20134;-47
2021/08/30 08:28:45;;;;;;;12.57;9.98;;;17.60;99.90;;;;;;5059497;28;20214;-47
2021/08/30 08:31:10;;;;;;;16.77;10.00;;;17.70;99.90;;;;;;5042087;28;20029;-49
2021/08/30 08:33:36;;;;;;;13.32;10.10;;;17.90;99.90;;;;;;5027308;28;20394;-47
2021/08/30 08:36:03;;;;;;;12.20;9.80;;;17.90;99.90;;;;;;5027534;28;20037;-50
2021/08/30 08:38:28;;;;;;;16.30;10.30;;;17.90;99.90;;;;;;5031179;28;20601;-50
2021/08/30 08:40:54;;;;;;;15.63;9.30;;;18.00;99.90;;;;;;5030093;28;20017;-50
2021/08/30 08:43:20;;;;;;;14.13;9.45;;;18.10;99.90;;;;;;5029131;28;20026;-50
2021/08/30 08:45:48;;;;;;;12.00;8.75;;;18.20;99.90;;;;;;5029600;28;20108;-49
2021/08/30 08:48:14;;;;;;;13.50;10.00;;;18.10;99.90;;;;;;5036845;28;20033;-48
2021/08/30 08:50:40;;;;;;;12.30;9.27;;;18.20;99.90;;;;;;5039934;28;20040;-48
2021/08/30 08:53:07;;;;;;;12.90;9.82;;;18.20;99.90;;;;;;5054578;28;20029;-50
2021/08/30 08:55:34;;;;;;;15.40;9.32;;;18.20;99.90;;;;;;5056209;28;20053;-49
2021/08/30 08:58:11;;;;;;;11.77;8.27;;;18.60;99.90;;;;;;5050062;28;20387;-49
2021/08/30 09:00:38;;;;;;;12.80;8.30;;;19.00;99.90;;;;;;5056415;28;20353;-50
2021/08/30 09:03:11;;;;;;;12.07;8.52;;;19.30;99.90;;;;;;5049193;28;20510;-48
2021/08/30 09:05:37;;;;;;;12.43;8.30;;;19.60;99.90;;;;;;5048604;28;20484;-48
2021/08/30 09:08:04;;;;;;;10.63;7.38;;;19.90;99.90;;;;;;5042845;28;20108;-47
2021/08/30 09:10:32;;;;;;;11.27;7.50;;;20.00;99.90;;;;;;5038807;28;20032;-48
2021/08/30 09:13:16;;;;;;;9.88;7.90;;;19.90;99.90;;;;;;5055192;28;20049;-47
2021/08/30 09:15:41;;;;;;;13.07;7.53;;;19.70;99.90;;;;;;5053774;28;20036;-49
2021/08/30 09:18:10;;;;;;;11.02;7.65;;;19.70;99.90;;;;;;5045313;28;20041;-47
2021/08/30 09:20:36;;;;;;;9.02;6.70;;;19.70;99.90;;;;;;5038525;28;20228;-47
2021/08/30 09:23:14;;;;;;;9.07;7.40;;;19.70;99.90;;;;;;5036204;28;20055;-47
2021/08/30 09:25:39;;;;;;;10.70;7.20;;;19.50;99.90;;;;;;5038712;28;20108;-48
2021/08/30 09:28:05;;;;;;;11.05;6.97;;;19.50;99.90;;;;;;5046225;28;20109;-47
2021/08/30 09:30:30;;;;;;;9.55;7.38;;;19.40;99.90;;;;;;5036962;28;20025;-47
2021/08/30 09:32:56;;;;;;;9.52;7.30;;;19.40;99.90;;;;;;5037242;28;20042;-47
2021/08/30 09:35:22;;;;;;;10.23;7.57;;;19.40;99.90;;;;;;5044970;28;20191;-48
2021/08/30 09:37:47;;;;;;;9.20;7.22;;;19.20;99.90;;;;;;5036624;28;20051;-49
2021/08/30 09:40:15;;;;;;;10.82;6.75;;;19.00;99.90;;;;;;5033873;28;20385;-48
2021/08/30 09:42:52;;;;;;;12.32;6.88;;;18.90;99.90;;;;;;5036435;28;20033;-48
2021/08/30 09:45:21;;;;;;;10.98;6.80;;;18.80;99.90;;;;;;5036001;28;20048;-47
2021/08/30 09:47:57;;;;;;;8.77;6.38;;;18.70;99.90;;;;;;5034494;28;20857;-47
2021/08/30 09:50:33;;;;;;;10.48;7.15;;;18.60;99.90;;;;;;5033923;28;20029;-47
2021/08/30 09:53:02;;;;;;;9.10;7.10;;;18.40;99.90;;;;;;5036180;28;20097;-47
2021/08/30 09:55:29;;;;;;;8.43;6.30;;;18.40;99.90;;;;;;5034914;28;20013;-47
2021/08/30 09:57:56;;;;;;;10.02;6.45;;;18.50;99.90;;;;;;5040598;28;20430;-50
2021/08/30 10:00:22;;;;;;;7.20;6.38;;;18.40;99.90;;;;;;5038859;28;20010;-50
2021/08/30 10:02:54;;;;;;;12.25;7.32;;;18.40;99.90;;;;;;5039955;28;20188;-49
2021/08/30 10:05:21;;;;;;;9.50;6.72;;;18.40;99.90;;;;;;5035191;28;20025;-47
2021/08/30 10:07:48;;;;;;;12.02;7.78;;;18.40;99.90;;;;;;5032289;28;20100;-48
2021/08/30 10:10:15;;;;;;;10.68;6.55;;;18.30;99.90;;;;;;5026213;28;20021;-47
2021/08/30 10:12:42;;;;;;;9.07;6.38;;;18.30;99.90;;;;;;5035014;28;20037;-47
2021/08/30 10:15:09;;;;;;;7.97;6.10;;;18.20;99.90;;;;;;5035655;28;20032;-47
2021/08/30 10:17:38;;;;;;;7.65;6.18;;;18.10;99.90;;;;;;5034973;28;20024;-48
2021/08/30 10:20:04;;;;;;;9.63;7.20;;;18.10;99.90;;;;;;5046534;28;20103;-49
2021/08/30 10:22:29;;;;;;;8.82;6.22;;;18.10;99.90;;;;;;5056563;28;20064;-48
2021/08/30 10:24:55;;;;;;;8.05;6.35;;;18.10;99.90;;;;;;5047245;28;20463;-51
2021/08/30 10:27:28;;;;;;;8.55;6.38;;;18.10;99.90;;;;;;5031584;28;20021;-48
2021/08/30 10:30:09;;;;;;;8.77;5.95;;;18.10;99.90;;;;;;5053845;28;20037;-50
2021/08/30 10:32:44;;;;;;;8.93;6.45;;;18.10;99.90;;;;;;5050966;28;20502;-48
2021/08/30 10:35:15;;;;;;;12.02;6.55;;;18.20;99.90;;;;;;5046419;28;20071;-50
2021/08/30 10:38:15;;;;;;;11.45;6.97;;;18.20;99.90;;;;;;5043596;28;20079;-48
2021/08/30 10:40:40;;;;;;;9.75;5.88;;;18.40;99.90;;;;;;5030785;28;20018;-49
2021/08/30 10:43:09;;;;;;;8.68;6.82;;;18.40;99.90;;;;;;5054243;28;20044;-48
2021/08/30 10:45:44;;;;;;;8.43;5.85;;;18.50;99.90;;;;;;5035923;28;20033;-48
2021/08/30 10:48:13;;;;;;;9.43;6.68;;;18.50;99.90;;;;;;5035504;28;20033;-47
2021/08/30 10:50:49;;;;;;;13.90;6.90;;;18.50;99.90;;;;;;5037414;28;20056;-47
2021/08/30 10:53:24;;;;;;;8.55;6.85;;;18.40;99.90;;;;;;5038687;28;20028;-50
2021/08/30 10:55:55;;;;;;;11.43;7.15;;;18.40;99.90;;;;;;5035780;28;20034;-51
2021/08/30 10:58:23;;;;;;;10.40;6.75;;;18.40;99.90;;;;;;5034435;28;20025;-47
2021/08/30 11:00:51;;;;;;;10.40;7.35;;;18.30;99.90;;;;;;5036581;28;20383;-45
2021/08/30 11:03:33;;;;;;;10.63;7.15;;;18.30;99.90;;;;;;5041203;28;20020;-50
2021/08/30 11:06:19;;;;;;;8.65;7.10;;;18.30;99.90;;;;;;5037594;28;20034;-50
2021/08/30 11:08:45;;;;;;;9.98;7.38;;;18.30;99.90;;;;;;5052357;28;20570;-48
2021/08/30 11:11:19;;;;;;;11.60;7.70;;;18.40;99.90;;;;;;5044519;28;20160;-49
2021/08/30 11:14:02;;;;;;;9.07;7.88;;;18.40;99.90;;;;;;5026937;28;20030;-47
2021/08/30 11:16:28;;;;;;;81.20;55.55;;;18.60;99.90;;;;;;5026038;28;20029;-49
2021/08/30 11:19:00;;;;;;;51.50;32.15;;;18.70;99.90;;;;;;5025222;28;20105;-47
2021/08/30 11:21:50;;;;;;;15.32;10.82;;;18.80;99.90;;;;;;5026674;28;20383;-47
2021/08/30 11:24:36;;;;;;;8.80;7.18;;;18.90;99.90;;;;;;5026814;28;20433;-48
2021/08/30 11:27:05;;;;;;;7.57;6.78;;;18.90;99.90;;;;;;5030259;28;20100;-49
2021/08/30 11:29:32;;;;;;;11.30;7.57;;;18.90;99.90;;;;;;5030475;28;20029;-48
2021/08/30 11:31:58;;;;;;;10.02;6.85;;;18.90;99.90;;;;;;5059233;28;20044;-49
2021/08/30 11:34:36;;;;;;;10.10;7.00;;;18.90;99.90;;;;;;5070450;28;20107;-48
2021/08/30 11:37:04;;;;;;;12.23;7.00;;;18.90;99.90;;;;;;5069442;28;20048;-49
2021/08/30 11:39:32;;;;;;;13.48;7.18;;;18.80;99.90;;;;;;5070459;28;20439;-47
2021/08/30 11:42:04;;;;;;;10.77;6.53;;;18.70;99.90;;;;;;5068586;28;20045;-47
2021/08/30 11:44:32;;;;;;;7.70;6.60;;;18.60;99.90;;;;;;5039744;28;20029;-47
2021/08/30 11:46:59;;;;;;;10.57;7.40;;;18.60;99.90;;;;;;5038128;28;20032;-47
2021/08/30 11:49:28;;;;;;;11.68;7.50;;;18.60;99.90;;;;;;5041562;28;20017;-47
2021/08/30 11:51:57;;;;;;;9.98;8.20;;;18.70;99.90;;;;;;5038205;28;20025;-48
2021/08/30 11:54:35;;;;;;;8.57;6.90;;;18.80;99.90;;;;;;5039144;28;20025;-48
2021/08/30 11:57:05;;;;;;;8.60;6.82;;;18.80;99.90;;;;;;5049580;28;20514;-47
2021/08/30 11:59:33;;;;;;;10.65;7.38;;;18.70;99.90;;;;;;5029558;28;20059;-47
2021/08/30 12:02:00;;;;;;;42.25;29.42;;;18.50;99.90;;;;;;5060218;28;20425;-48
2021/08/30 12:04:28;;;;;;;22.95;16.35;;;18.30;99.90;;;;;;5071099;28;20035;-47
2021/08/30 12:06:56;;;;;;;11.05;7.88;;;18.20;99.90;;;;;;5070691;28;20026;-50
2021/08/30 12:09:22;;;;;;;15.90;7.97;;;18.10;99.90;;;;;;5048057;28;20029;-48
2021/08/30 12:11:52;;;;;;;14.10;8.82;;;18.00;99.90;;;;;;5035621;28;20021;-47
2021/08/30 12:14:22;;;;;;;12.18;9.20;;;17.80;99.90;;;;;;5039361;28;20098;-48
2021/08/30 12:16:48;;;;;;;14.35;9.02;;;17.80;99.90;;;;;;5037497;28;20029;-47
2021/08/30 12:19:14;;;;;;;10.70;8.73;;;17.80;99.90;;;;;;5039344;28;20159;-47
2021/08/30 12:21:41;;;;;;;14.55;9.13;;;17.90;99.90;;;;;;5036348;28;20025;-48
2021/08/30 12:24:09;;;;;;;15.25;9.57;;;18.00;99.90;;;;;;5031632;28;20250;-49
2021/08/30 12:26:36;;;;;;;11.45;9.07;;;18.10;99.90;;;;;;5038898;28;20056;-49
2021/08/30 12:29:03;;;;;;;12.48;8.73;;;18.30;99.90;;;;;;5051071;28;20021;-47
2021/08/30 12:31:32;;;;;;;10.82;8.68;;;18.30;99.90;;;;;;5043816;28;20025;-47
2021/08/30 12:34:17;;;;;;;12.05;9.15;;;18.30;99.90;;;;;;5040154;28;20032;-50
2021/08/30 12:36:45;;;;;;;15.27;9.82;;;18.20;99.90;;;;;;5031778;28;20021;-48